Rogers Spring, Nevada Weather observations

Data are for 10 minute period ending at time listed.
 Day   Time   Solar   Ave.   Ave.  Ave.  Vector  Max.   Baro.   Total    
  of    of     Rad.   Air    Rel.  Wind   Wind   Wind  Press.  Precip.   
Year   Day            Temp.  Hum.  Speed  Dir.   Gust                    
2014   (PST)  Kw/m2    F      %     mph   deg.    mph    mb.     in.     
-------------------------------------------------------------------------
 202    1:50   0.00   79.1    28    4.7   171     9.9   931.5    0.00 
 202    2:00   0.00   80.2    26    5.5   170    10.4   931.6    0.00 
 202    2:10   0.00   80.2    26    5.2   179    11.2   931.7    0.00 
 202    2:20   0.00   78.6    28    5.5   170     9.6   931.8    0.00 
 202    2:30   0.00   79.4    27    6.4   160    10.7   932.0    0.00 
 202    2:40   0.00   79.8    28    5.9   150    10.7   932.1    0.00 
 202    2:50   0.00   80.0    30    6.1   157    13.5   932.2    0.00 
 202    3:00   0.00   80.2    29    5.9   165    11.4   932.2    0.00 
 202    3:10   0.00   79.7    30    5.6   170    11.0   932.3    0.00 
 202    3:20   0.00   78.9    31    4.8   165     8.8   932.3    0.00 
 202    3:30   0.00   78.4    30    4.8   161     7.5   932.2    0.00 
 202    3:40   0.00   78.1    29    3.8   173     6.4   932.3    0.00 
 202    3:50   0.00   76.8    31    2.6   197     4.3   932.5    0.00 
 202    4:00   0.00   74.1    34    1.1   173     3.4   932.6    0.00 
 202    4:10   0.00   74.1    33    3.6   152     6.6   932.8    0.00 
 202    4:20   0.00   75.5    31    3.8   156     6.6   933.0    0.00 
 202    4:30   0.00   75.5    32    3.6   163     6.9   933.1    0.00 
 202    4:40   100.00  99999.0   99999  99999.0   99999   99999.0   99999.0   99999.00 
 202    4:50   0.01   74.4    36    2.5   163     8.7   933.3    0.00 
 202    5:00   0.02   74.0    35    3.4   157     6.7   933.4    0.00 
 202    5:10   0.04   75.1    32    3.3   159     6.1   933.5    0.00 
 202    5:20   0.06   75.4    32    3.1   153     5.9   933.6    0.00 
 202    5:30   0.08   75.7    33    3.7   176     7.5   933.8    0.00 
 202    5:40   0.11   77.0    32    3.0   193     6.1   933.9    0.00 
 202    5:50   0.14   78.2    31    2.1   195     4.1   933.9    0.00 
 202    6:00   0.17   78.8    30    3.7   185     7.7   934.1    0.00 
 202    6:10   0.20   80.0    30    5.3   163    10.4   934.1    0.00 
 202    6:20   0.23   81.5    29    5.6   161    10.7   934.3    0.00 
 202    6:30   0.27   82.5    28    7.0   160    13.1   934.3    0.00 
 202    6:40   0.30   83.2    26    8.1   156    15.3   934.3    0.00 
 202    6:50   0.34   83.5    26    8.8   153    15.1   934.4    0.00 
 202    7:00   0.37   84.2    25    9.2   152    17.5   934.4    0.00 
 202    7:10   0.41   85.1    25    7.3   147    11.8   934.5    0.00 
 202    7:20   0.44   86.2    24    6.4   145    12.6   934.6    0.00 
 202    7:30   0.47   87.2    23    6.7   141    13.2   934.6    0.00 
 202    7:40   0.51   87.5    23    6.6   145    13.1   934.6    0.00 
 202    7:50   0.54   88.4    22    5.9   138    12.6   934.6    0.00 
 202    8:00   0.57   89.2    22    5.7   146    11.2   934.6    0.00 
 202    8:10   0.61   89.5    21    6.7   145    12.9   934.6    0.00 
 202    8:20   0.64   90.5    20    7.0   163    15.1   934.6    0.00 
 202    8:30   0.67   90.4    19    7.3   153    14.9   934.6    0.00 
 202    8:40   0.69   91.1    18    7.7   174    14.1   934.6    0.00 
 202    8:50   0.72   91.7    16    7.3   168    14.3   934.6    0.00 
 202    9:00   0.75   91.8    16    8.7   190    16.3   934.7    0.00 
 202    9:10   0.78   92.1    16    9.0   185    16.7   934.6    0.00 
 202    9:20   0.80   92.5    16    8.9   198    15.6   934.7    0.00 
 202    9:30   0.83   93.0    14    8.3   167    14.8   934.7    0.00 
 202    9:40   0.85   93.2    14    8.6   183    18.6   934.7    0.00 
 202    9:50   0.87   93.4    15    7.3   175    14.5   934.7    0.00 
 202   10:00   0.89   93.8    15    8.9   184    17.2   934.7    0.00 
 202   10:10   0.90   93.8    15    8.5   194    16.5   934.7    0.00 
 202   10:20   0.92   94.2    15    8.4   192    16.4   934.7    0.00 
 202   10:30   0.93   94.2    15    8.1   182    16.7   934.6    0.00 
 202   10:40   0.95   94.9    15    8.1   175    16.0   934.5    0.00 
 202   10:50   0.96   95.1    14    9.4   182    16.4   934.5    0.00 
 202   11:00   0.97   95.4    14    8.6   188    14.5   934.5    0.00 
 202   11:10   0.98   95.9    14    8.2   176    14.9   934.4    0.00 
 202   11:20   0.99   96.3    14    8.0   189    15.9   934.3    0.00 
 202   11:30   0.99   96.3    13    8.8   184    18.2   934.3    0.00 
 202   11:40   1.00   96.9    13    8.5   181    15.9   934.3    0.00 
 202   11:50   1.00   97.1    12    8.1   165    16.7   934.2    0.00 
 202   12:00   0.99   97.2    13    7.7   165    18.2   934.2    0.00 
 202   12:10   0.99   97.4    13    8.2   166    17.3   934.1    0.00 
 202   12:20   0.99   97.0    13    7.0   167    13.2   934.0    0.00 
 202   12:30   0.98   97.4    12    9.2   171    19.7   934.0    0.00 
 202   12:40   0.98   97.9    12    8.8   173    19.3   933.9    0.00 
 202   12:50   0.97   97.9    12    7.4   198    15.3   933.9    0.00 
 202   13:00   0.96   98.2    12    8.1   157    16.7   933.8    0.00 
 202   13:10   0.95   98.4    12    9.1   184    16.2   933.7    0.00 
 202   13:20   0.94   98.3    12    7.8   169    15.6   933.6    0.00 
 202   13:30   0.93   98.7    12    8.4   185    16.8   933.6    0.00 
 202   13:40   0.91   98.8    12    8.8   178    15.5   933.5    0.00 
 202   13:50   0.89   98.5    12    7.8   176    15.3   933.4    0.00 
 202   14:00   0.87   98.9    12    8.8   167    15.1   933.3    0.00 
 202   14:10   0.85   98.7    12    8.8   170    17.6   933.3    0.00 
 202   14:20   0.83   99.0    12    7.6   172    15.1   933.2    0.00 
 202   14:30   0.81   99.1    12    8.6   196    17.8   933.2    0.00 
 202   14:40   0.78   99.4    11    7.8   174    18.1   933.1    0.00 
 202   14:50   0.76   99.6    11    7.4   180    13.2   933.0    0.00 
 202   15:00   0.73   99.0    12    8.1   159    15.9   933.0    0.00 
 202   15:10   0.70   98.5    12    8.9   162    17.5   932.8    0.00 
 202   15:20   0.68   99.0    12    6.5   164    11.5   932.6    0.00 
 202   15:30   0.64   99.2    12    7.9   176    14.8   932.6    0.00 
 202   15:40   0.61   99.1    12    6.7   164    19.3   932.6    0.00 
 202   15:50   0.58   98.9    12    7.3   183    14.5   932.5    0.00 
 202   16:00   0.55   99.3    12    7.2   175    14.3   932.3    0.00 
 202   16:10   0.52   98.8    13    6.9   163    15.3   932.3    0.00 
 202   16:20   0.49   98.7    12    8.0   167    15.9   932.2    0.00 
 202   16:30   0.45   98.6    12    7.0   171    13.9   932.2    0.00 
 202   16:40   0.42   98.6    12    7.1   180    13.1   932.1    0.00 
 202   16:50   0.39   98.3    12    7.4   169    15.3   932.1    0.00 
 202   17:00   0.35   98.5    12    5.6   168    10.5   932.1    0.00 
 202   17:10   0.32   98.4    11    5.8   174    12.9   932.1    0.00 
 202   17:20   0.28   97.8    11    8.2   175    16.1   932.0    0.00 
 202   17:30   0.25   97.4    11    7.3   171    12.9   932.0    0.00 
 202   17:40   0.22   97.2    11    7.4   169    14.1   932.0    0.00 
 202   17:50   0.18   96.5    11    8.1   188    16.1   932.0    0.00 
 202   18:00   0.15   95.9    11    8.3   190    14.5   932.0    0.00 
 202   18:10   0.12   95.1    11    7.6   198    13.2   931.9    0.00 
 202   18:20   0.10   94.9    12    4.9   176     8.8   931.8    0.00 
 202   18:30   0.07   94.0    12    5.5   183     9.6   931.7    0.00 
 202   18:40   0.05   93.1    12    4.5   176     8.1   931.8    0.00 
 202   18:50   0.03   91.9    13    3.4   168     6.8   931.7    0.00 
 202   19:00   0.01   90.1    13    3.6   161     6.5   931.6    0.00 
 202   19:10   0.00   88.4    14    2.6   161     4.5   931.6    0.00 
 202   19:20   0.00   86.3    15    3.1   161     7.5   931.6    0.00 
 202   19:30   0.00   86.6    15    3.4   150     5.8   931.7    0.00 
 202   19:40   0.00   85.7    16    2.7   143     4.2   931.8    0.00 
 202   19:50   0.00   85.8    15    3.1   142     6.5   932.0    0.00 
 202   20:00   0.00   86.1    15    3.1   145     5.0   932.1    0.00 
 202   20:10   0.00   86.2    15    3.2   146     6.1   932.2    0.00 
 202   20:20   0.00   86.3    15    2.6   137     5.4   932.3    0.00 
 202   20:30   0.00   86.5    14    2.8   128     5.3   932.4    0.00 
 202   20:40   0.00   87.2    14    2.9   131     6.5   932.5    0.00 
 202   20:50   0.00   87.7    14    2.8   131     5.6   932.6    0.00 
 202   21:00   0.00   87.7    14    2.6   131     5.2   932.8    0.00 
 202   21:10   0.00   87.1    15    3.0   160     6.8   932.9    0.00 
 202   21:20   0.00   85.0    16    3.8   158     7.5   933.0    0.00 
 202   21:30   0.00   84.2    17    3.0   147     4.7   933.0    0.00 
 202   21:40   0.00   83.9    17    2.9   146     5.1   933.1    0.00 
 202   21:50   0.00   83.7    16    2.9   140     5.0   933.2    0.00 
 202   22:00   0.00   83.9    16    2.7   141     4.5   933.2    0.00 
 202   22:10   0.00   83.7    16    2.2   134     4.4   933.2    0.00 
 202   22:20   0.00   83.6    16    3.1   148     6.1   933.3    0.00 
 202   22:30   0.00   83.4    16    2.4   138     4.3   933.3    0.00 
 202   22:40   0.00   83.4    17    2.1   131     3.4   933.3    0.00 
 202   22:50   0.00   82.0    19    2.1   146     3.4   933.3    0.00 
 202   23:00   0.00   80.6    20    1.9   135     3.0   933.4    0.00 
 202   23:10   0.00   79.9    21    1.0   113     2.7   933.3    0.00 
 202   23:20   0.00   75.1    26    0.5   288     1.5   933.4    0.00 
 202   23:30   0.00   74.3    26    2.0   150     3.4   933.5    0.00 
 202   23:40   0.00   77.0    23    2.3   150     3.1   933.5    0.00 
 202   23:50   0.00   78.9    22    2.2   137     3.2   933.5    0.00 
 203    0:00   0.00   80.4    21    2.1   136     3.4   933.6    0.00 
 203    0:10   0.00   79.8    21    1.8   146     2.9   933.5    0.00 
 203    0:20   0.00   77.9    23    1.5   111     3.1   933.6    0.00 
 203    0:30   0.00   71.8    28    1.8   357     3.2   933.7    0.00 
 203    0:40   0.00   71.8    27    2.7    48     5.5   933.7    0.00 
 203    0:50   0.00   74.0    25    2.6    52     4.8   933.8    0.00 
 203    1:00   0.00   72.9    26    0.6    80     2.0   933.9    0.00 
 203    1:10   0.00   68.5    31    0.9    91     3.5   933.9    0.00 
 203    1:20   0.00   66.8    32    0.5    95     1.7   934.0    0.00 
 203    1:30   0.00   66.0    33    1.6    95     5.0   934.0    0.00 
 203    1:40   0.00   70.1    29    2.8    79     4.8   934.0    0.00 

Return to Rogers Spring graphs page.


Western Regional Climate Center,wrcc@dri.edu